createdAt,value
2019-04-01T00:00:23.605Z,35.80
2019-04-01T00:02:52.892Z,32.57
2019-04-01T00:05:22.172Z,34.53
2019-04-01T00:07:51.455Z,35.60
2019-04-01T00:10:20.733Z,33.80
2019-04-01T00:12:50.018Z,33.70
2019-04-01T00:15:19.291Z,34.20
2019-04-01T00:17:48.580Z,31.80
2019-04-01T00:20:17.854Z,34.73
2019-04-01T00:22:47.303Z,32.97
2019-04-01T00:25:16.662Z,30.97
2019-04-01T00:27:46.297Z,33.97
2019-04-01T00:30:15.568Z,35.03
2019-04-01T00:32:45.188Z,33.47
2019-04-01T00:35:14.470Z,33.67
2019-04-01T00:37:43.745Z,33.10
2019-04-01T00:40:13.526Z,33.47
2019-04-01T00:42:47.372Z,34.83
2019-04-01T00:45:18.358Z,32.97
2019-04-01T00:47:47.645Z,31.87
2019-04-01T00:50:16.922Z,33.27
2019-04-01T00:52:46.206Z,34.90
2019-04-01T00:55:15.481Z,31.63
2019-04-01T00:57:45.054Z,32.80
2019-04-01T01:00:16.036Z,31.70
2019-04-01T01:02:45.610Z,32.30
2019-04-01T01:05:15.204Z,33.90
2019-04-01T01:07:44.490Z,32.00
2019-04-01T01:10:14.200Z,33.17
2019-04-01T01:12:43.825Z,31.27
2019-04-01T01:15:13.745Z,30.43
2019-04-01T01:17:43.035Z,31.93
2019-04-01T01:20:12.573Z,34.37
2019-04-01T01:22:41.853Z,30.10
2019-04-01T01:25:11.119Z,32.95
2019-04-01T01:27:40.472Z,31.23
2019-04-01T01:30:09.982Z,30.95
2019-04-01T01:32:39.559Z,31.83
2019-04-01T01:35:08.975Z,33.28
2019-04-01T01:37:38.566Z,31.23
2019-04-01T01:40:08.147Z,30.32
2019-04-01T01:42:37.782Z,31.05
2019-04-01T01:45:07.328Z,32.55
2019-04-01T01:47:36.602Z,31.27
2019-04-01T01:50:07.416Z,32.53
2019-04-01T01:52:36.679Z,31.27
2019-04-01T01:55:06.298Z,30.65
2019-04-01T01:57:35.574Z,33.78
2019-04-01T02:00:05.631Z,32.15
2019-04-01T02:02:34.905Z,31.90
2019-04-01T02:05:05.221Z,30.77
2019-04-01T02:07:34.750Z,33.65
2019-04-01T02:10:04.770Z,30.70
2019-04-01T02:12:34.037Z,30.40
2019-04-01T02:15:04.083Z,32.33
2019-04-01T02:17:33.350Z,30.23
2019-04-01T02:20:02.635Z,31.93
2019-04-01T02:22:31.909Z,30.70
2019-04-01T02:25:01.203Z,30.70
2019-04-01T02:27:30.474Z,31.93
2019-04-01T02:29:59.757Z,29.95
2019-04-01T02:32:29.034Z,31.75
2019-04-01T02:34:58.312Z,31.12
2019-04-01T02:37:27.578Z,32.10
2019-04-01T02:39:56.860Z,29.57
2019-04-01T02:42:26.132Z,32.90
2019-04-01T02:44:55.415Z,31.07
2019-04-01T02:47:25.034Z,31.77
2019-04-01T02:49:54.316Z,30.70
2019-04-01T02:52:23.596Z,30.27
2019-04-01T02:54:53.126Z,30.37
2019-04-01T02:57:22.407Z,29.85
2019-04-01T02:59:51.682Z,29.72
2019-04-01T03:02:21.040Z,30.20
2019-04-01T03:04:50.329Z,30.20
2019-04-01T03:07:19.610Z,30.70
2019-04-01T03:09:48.875Z,30.65
2019-04-01T03:12:18.148Z,32.90
2019-04-01T03:14:47.436Z,31.52
2019-04-01T03:17:17.049Z,31.00
2019-04-01T03:19:46.320Z,33.23
2019-04-01T03:22:15.598Z,30.88
2019-04-01T03:24:44.882Z,33.28
2019-04-01T03:27:17.196Z,32.10
2019-04-01T03:29:45.447Z,32.70
2019-04-01T03:32:14.853Z,31.70
2019-04-01T03:34:44.080Z,30.92
2019-04-01T03:37:13.351Z,31.55
2019-04-01T03:39:42.890Z,31.77
2019-04-01T03:42:12.175Z,31.75
2019-04-01T03:44:41.443Z,31.57
2019-04-01T03:47:10.726Z,31.70
2019-04-01T03:49:39.991Z,29.27
2019-04-01T03:52:10.355Z,32.13
2019-04-01T03:54:40.236Z,32.80
2019-04-01T03:57:09.532Z,32.70
2019-04-01T03:59:39.157Z,33.28
2019-04-01T04:02:08.432Z,32.05
2019-04-01T04:04:37.696Z,32.88
2019-04-01T04:07:06.971Z,32.42
2019-04-01T04:09:36.233Z,30.15
2019-04-01T04:12:05.506Z,32.70
2019-04-01T04:14:35.012Z,32.45
2019-04-01T04:17:04.282Z,30.00
2019-04-01T04:19:33.555Z,30.17
2019-04-01T04:22:02.864Z,31.73
2019-04-01T04:24:32.147Z,32.23
2019-04-01T04:27:01.753Z,32.50
2019-04-01T04:29:31.021Z,33.98
2019-04-01T04:32:00.296Z,34.00
2019-04-01T04:34:29.861Z,32.48
2019-04-01T04:36:59.137Z,32.25
2019-04-01T04:39:28.765Z,32.25
2019-04-01T04:41:58.039Z,32.00
2019-04-01T04:44:27.298Z,32.08
2019-04-01T04:46:56.874Z,32.63
2019-04-01T04:49:26.486Z,32.58
2019-04-01T04:51:55.755Z,33.95
2019-04-01T04:54:25.022Z,33.63
2019-04-01T04:56:54.587Z,32.40
2019-04-01T04:59:23.863Z,30.57
2019-04-01T05:01:53.129Z,35.10
2019-04-01T05:04:22.397Z,32.78
2019-04-01T05:06:51.674Z,35.17
2019-04-01T05:09:20.935Z,33.25
2019-04-01T05:11:50.210Z,31.73
2019-04-01T05:14:19.543Z,34.88
2019-04-01T05:16:48.815Z,36.80
2019-04-01T05:19:18.084Z,34.08
2019-04-01T05:21:48.168Z,35.30
2019-04-01T05:24:17.709Z,33.90
2019-04-01T05:26:49.669Z,34.18
2019-04-01T05:29:20.271Z,34.20
2019-04-01T05:31:51.884Z,34.27
2019-04-01T05:34:22.915Z,37.00
2019-04-01T05:36:52.186Z,31.82
2019-04-01T05:39:21.521Z,33.33
2019-04-01T05:41:50.802Z,33.65
2019-04-01T05:44:20.403Z,32.13
2019-04-01T05:46:49.682Z,34.40
2019-04-01T05:49:19.255Z,33.23
2019-04-01T05:51:48.598Z,32.35
2019-04-01T05:54:18.232Z,33.35
2019-04-01T05:56:47.770Z,32.15
2019-04-01T05:59:17.570Z,32.67
2019-04-01T06:01:48.521Z,33.38
2019-04-01T06:04:17.785Z,33.48
2019-04-01T06:06:48.844Z,35.23
2019-04-01T06:09:18.327Z,33.13
2019-04-01T06:11:48.191Z,31.37
2019-04-01T06:14:17.521Z,34.75
2019-04-01T06:16:47.103Z,34.53
2019-04-01T06:19:16.668Z,31.27
2019-04-01T06:21:45.935Z,34.73
2019-04-01T06:24:15.557Z,32.00
2019-04-01T06:26:44.853Z,32.80
2019-04-01T06:29:14.099Z,32.75
2019-04-01T06:31:43.368Z,31.90
2019-04-01T06:34:12.647Z,33.23
2019-04-01T06:36:41.981Z,32.65
2019-04-01T06:39:11.274Z,32.48
2019-04-01T06:41:40.871Z,30.25
2019-04-01T06:44:10.147Z,33.88
2019-04-01T06:46:39.418Z,33.92
2019-04-01T06:49:08.693Z,31.30
2019-04-01T06:51:38.806Z,35.08
2019-04-01T06:54:08.088Z,31.12
2019-04-01T06:56:37.429Z,33.28
2019-04-01T06:59:06.778Z,34.00
2019-04-01T07:01:36.061Z,29.15
2019-04-01T07:04:05.479Z,30.52
2019-04-01T07:06:34.750Z,30.35
2019-04-01T07:09:05.871Z,30.43
2019-04-01T07:11:35.515Z,30.93
2019-04-01T07:14:05.822Z,31.07
2019-04-01T07:16:35.081Z,30.40
2019-04-01T07:19:04.371Z,32.07
2019-04-01T07:21:34.014Z,31.27
2019-04-01T07:24:03.300Z,31.95
2019-04-01T07:26:32.568Z,29.77
2019-04-01T07:29:01.852Z,31.62
2019-04-01T07:31:31.122Z,31.10
2019-04-01T07:34:00.709Z,29.80
2019-04-01T07:36:30.047Z,30.73
2019-04-01T07:38:59.322Z,32.40
2019-04-01T07:41:28.599Z,31.50
2019-04-01T07:43:57.949Z,28.67
2019-04-01T07:46:27.219Z,32.50
2019-04-01T07:48:56.502Z,30.50
2019-04-01T07:51:25.771Z,31.00
2019-04-01T07:53:55.048Z,30.07
2019-04-01T07:56:24.596Z,32.70
2019-04-01T07:58:53.944Z,33.40
2019-04-01T08:01:23.213Z,31.13
2019-04-01T08:03:52.901Z,31.60
2019-04-01T08:06:22.239Z,32.80
2019-04-01T08:08:51.528Z,31.40
2019-04-01T08:11:20.794Z,28.60
2019-04-01T08:13:50.139Z,32.20
2019-04-01T08:16:19.428Z,31.97
2019-04-01T08:18:48.713Z,29.03
2019-04-01T08:21:17.985Z,30.63
2019-04-01T08:23:47.270Z,31.50
2019-04-01T08:26:16.541Z,30.50
2019-04-01T08:28:45.827Z,30.40
2019-04-01T08:31:15.171Z,30.87
2019-04-01T08:33:44.697Z,31.80
2019-04-01T08:36:13.967Z,31.03
2019-04-01T08:38:43.254Z,32.47
2019-04-01T08:41:12.530Z,29.77
2019-04-01T08:43:42.249Z,32.80
2019-04-01T08:46:11.587Z,31.40
2019-04-01T08:48:40.876Z,31.20
2019-04-01T08:51:10.143Z,30.70
2019-04-01T08:53:40.037Z,32.90
2019-04-01T08:56:09.320Z,29.13
2019-04-01T08:58:38.946Z,28.90
2019-04-01T09:01:08.232Z,32.33
2019-04-01T09:03:37.505Z,32.37
2019-04-01T09:06:06.860Z,31.23
2019-04-01T09:08:37.475Z,33.83
2019-04-01T09:11:06.757Z,31.47
2019-04-01T09:13:36.405Z,33.20
2019-04-01T09:16:05.759Z,31.43
2019-04-01T09:18:35.032Z,32.67
2019-04-01T09:21:04.314Z,27.60
2019-04-01T09:23:33.593Z,31.70
2019-04-01T09:26:02.872Z,31.63
2019-04-01T09:28:32.496Z,34.50
2019-04-01T09:31:01.780Z,29.33
2019-04-01T09:33:31.409Z,32.37
2019-04-01T09:36:00.694Z,32.90
2019-04-01T09:38:29.971Z,34.23
2019-04-01T09:40:59.511Z,32.10
2019-04-01T09:43:28.788Z,32.67
2019-04-01T09:45:58.077Z,31.63
2019-04-01T09:48:27.594Z,33.83
2019-04-01T09:50:57.226Z,32.77
2019-04-01T09:53:26.507Z,32.70
2019-04-01T09:55:55.792Z,32.90
2019-04-01T09:58:25.064Z,29.53
2019-04-01T10:00:54.353Z,30.53
2019-04-01T10:03:23.630Z,33.17
2019-04-01T10:05:52.913Z,29.77
2019-04-01T10:08:22.377Z,29.83
2019-04-01T10:10:51.937Z,29.40
2019-04-01T10:13:21.205Z,31.17
2019-04-01T10:15:50.497Z,31.73
2019-04-01T10:18:19.774Z,32.47
2019-04-01T10:20:49.055Z,32.37
2019-04-01T10:23:18.329Z,31.30
2019-04-01T10:25:51.100Z,31.40
2019-04-01T10:28:18.897Z,27.57
2019-04-01T10:30:48.178Z,29.87
2019-04-01T10:33:17.452Z,28.30
2019-04-01T10:35:46.739Z,31.07
2019-04-01T10:38:16.013Z,28.83
2019-04-01T10:40:45.292Z,26.70
2019-04-01T10:43:14.574Z,29.23
2019-04-01T10:45:43.856Z,29.73
2019-04-01T10:48:13.171Z,27.50
2019-04-01T10:50:42.447Z,28.77
2019-04-01T10:53:11.999Z,27.43
2019-04-01T10:55:41.601Z,25.30
2019-04-01T10:58:10.878Z,25.70
2019-04-01T11:00:40.402Z,25.60
2019-04-01T11:03:09.725Z,27.00
2019-04-01T11:05:38.975Z,25.27
2019-04-01T11:08:08.257Z,25.57
2019-04-01T11:10:37.526Z,26.50
2019-04-01T11:13:06.788Z,26.03
2019-04-01T11:15:36.409Z,27.10
2019-04-01T11:18:05.998Z,26.90
2019-04-01T11:20:36.128Z,21.67
2019-04-01T11:23:06.037Z,24.87
2019-04-01T11:25:35.346Z,25.50
2019-04-01T11:28:04.663Z,23.77
2019-04-01T11:30:36.908Z,26.03
2019-04-01T11:33:07.703Z,26.87
2019-04-01T11:35:36.270Z,25.83
2019-04-01T11:38:05.603Z,26.30
2019-04-01T11:40:38.384Z,23.90
2019-04-01T11:43:05.867Z,26.10
2019-04-01T11:45:35.144Z,25.17
2019-04-01T11:48:04.451Z,27.07
2019-04-01T11:50:33.765Z,25.40
2019-04-01T11:53:03.286Z,24.43
2019-04-01T11:55:32.556Z,24.43
2019-04-01T11:58:01.841Z,22.33
2019-04-01T12:00:31.126Z,23.30
2019-04-01T12:03:00.408Z,22.77
2019-04-01T12:05:29.684Z,20.53
2019-04-01T12:07:59.294Z,22.63
2019-04-01T12:10:28.567Z,21.57
2019-04-01T12:12:57.848Z,24.90
2019-04-01T12:15:27.116Z,20.93
2019-04-01T12:17:56.411Z,24.53
2019-04-01T12:20:25.687Z,19.83
2019-04-01T12:22:55.232Z,24.83
2019-04-01T12:25:24.508Z,21.10
2019-04-01T12:27:53.792Z,21.50
2019-04-01T12:30:23.061Z,19.57
2019-04-01T12:32:52.363Z,19.13
2019-04-01T12:35:21.907Z,20.53
2019-04-01T12:37:51.183Z,18.40
2019-04-01T12:40:20.535Z,18.47
2019-04-01T12:42:50.975Z,20.00
2019-04-01T12:45:20.273Z,19.20
2019-04-01T12:47:49.560Z,18.20
2019-04-01T12:50:19.008Z,17.57
2019-04-01T12:52:48.285Z,20.77
2019-04-01T12:55:17.844Z,18.00
2019-04-01T12:57:48.573Z,17.73
2019-04-01T13:00:18.920Z,17.77
2019-04-01T13:02:49.485Z,18.03
2019-04-01T13:05:19.141Z,17.40
2019-04-01T13:07:49.873Z,18.97
2019-04-01T13:10:20.366Z,19.53
2019-04-01T13:12:49.826Z,18.67
2019-04-01T13:15:19.097Z,19.20
2019-04-01T13:17:49.903Z,16.30
2019-04-01T13:20:19.341Z,14.83
2019-04-01T13:22:48.956Z,14.93
2019-04-01T13:25:18.229Z,18.17
2019-04-01T13:27:47.508Z,17.20
2019-04-01T13:30:16.848Z,17.60
2019-04-01T13:32:46.125Z,15.90
2019-04-01T13:35:15.473Z,20.30
2019-04-01T13:37:44.745Z,19.13
2019-04-01T13:40:15.328Z,16.23
2019-04-01T13:42:44.818Z,17.47
2019-04-01T13:45:14.338Z,18.47
2019-04-01T13:47:43.610Z,16.50
2019-04-01T13:50:16.216Z,15.67
2019-04-01T13:52:44.130Z,19.00
2019-04-01T13:55:13.410Z,18.03
2019-04-01T13:57:42.949Z,19.90
2019-04-01T14:00:14.352Z,19.10
2019-04-01T14:02:43.617Z,17.93
2019-04-01T14:05:13.174Z,17.50
2019-04-01T14:07:42.440Z,14.83
2019-04-01T14:10:12.320Z,14.63
2019-04-01T14:12:41.596Z,16.00
2019-04-01T14:15:11.120Z,15.70
2019-04-01T14:17:40.393Z,15.07
2019-04-01T14:20:09.879Z,15.33
2019-04-01T14:22:39.437Z,14.90
2019-04-01T14:25:08.897Z,15.73
2019-04-01T14:27:39.321Z,14.83
2019-04-01T14:30:09.163Z,14.27
2019-04-01T14:32:38.994Z,14.27
2019-04-01T14:35:09.181Z,17.53
2019-04-01T14:37:39.639Z,16.67
2019-04-01T14:40:09.953Z,17.30
2019-04-01T14:42:39.878Z,17.33
2019-04-01T14:45:10.317Z,16.53
2019-04-01T14:47:56.121Z,15.93
2019-04-01T14:50:11.308Z,15.57
2019-04-01T14:52:41.400Z,16.40
2019-04-01T14:55:10.931Z,15.37
2019-04-01T14:57:40.200Z,14.33
2019-04-01T15:00:14.190Z,16.13
2019-04-01T15:02:43.678Z,15.70
2019-04-01T15:05:13.161Z,13.73
2019-04-01T15:07:42.431Z,16.57
2019-04-01T15:10:11.852Z,15.73
2019-04-01T15:12:41.195Z,14.63
2019-04-01T15:15:10.716Z,14.60
2019-04-01T15:17:39.984Z,13.87
2019-04-01T15:20:09.799Z,16.47
2019-04-01T15:22:39.072Z,16.13
2019-04-01T15:25:08.848Z,14.53
2019-04-01T15:27:38.453Z,16.20
2019-04-01T15:30:09.458Z,15.27
2019-04-01T15:32:38.705Z,17.20
2019-04-01T15:35:08.754Z,14.57
2019-04-01T15:37:38.030Z,15.10
2019-04-01T15:40:08.665Z,15.23
2019-04-01T15:42:37.936Z,15.10
2019-04-01T15:45:07.387Z,13.80
2019-04-01T15:47:38.304Z,11.53
2019-04-01T15:50:09.535Z,15.07
2019-04-01T15:52:39.127Z,13.93
2019-04-01T15:55:08.772Z,12.50
2019-04-01T15:57:38.045Z,14.17
2019-04-01T16:00:08.367Z,14.83
2019-04-01T16:02:37.640Z,13.07
2019-04-01T16:05:08.430Z,12.60
2019-04-01T16:07:37.709Z,11.90
2019-04-01T16:10:07.530Z,14.47
2019-04-01T16:12:36.801Z,12.20
2019-04-01T16:15:09.067Z,13.33
2019-04-01T16:17:38.419Z,15.13
2019-04-01T16:20:08.218Z,16.03
2019-04-01T16:22:37.808Z,10.57
2019-04-01T16:25:08.661Z,16.40
2019-04-01T16:27:37.933Z,12.90
2019-04-01T16:30:08.948Z,14.47
2019-04-01T16:32:38.487Z,14.93
2019-04-01T16:35:08.033Z,13.30
2019-04-01T16:37:37.599Z,12.30
2019-04-01T16:40:07.922Z,14.80
2019-04-01T16:42:37.191Z,16.53
2019-04-01T16:45:08.379Z,15.20
2019-04-01T16:47:37.662Z,12.50
2019-04-01T16:50:08.848Z,15.97
2019-04-01T16:52:38.133Z,15.63
2019-04-01T16:55:08.445Z,16.03
2019-04-01T16:57:37.804Z,15.30
2019-04-01T17:00:14.517Z,14.30
2019-04-01T17:02:42.691Z,14.07
2019-04-01T17:05:12.201Z,13.57
2019-04-01T17:07:41.853Z,13.60
2019-04-01T17:10:20.550Z,11.73
2019-04-01T17:12:49.826Z,13.53
2019-04-01T17:15:19.101Z,13.47
2019-04-01T17:17:48.380Z,12.77
2019-04-01T17:20:17.792Z,15.67
2019-04-01T17:22:47.080Z,14.47
2019-04-01T17:25:16.353Z,13.60
2019-04-01T17:27:45.627Z,12.70
2019-04-01T17:30:15.443Z,13.10
2019-04-01T17:32:44.728Z,13.83
2019-04-01T17:35:14.133Z,14.10
2019-04-01T17:37:43.418Z,14.07
2019-04-01T17:40:16.889Z,14.40
2019-04-01T17:42:45.431Z,16.30
2019-04-01T17:45:29.325Z,14.10
2019-04-01T17:48:00.489Z,13.53
2019-04-01T17:50:29.681Z,14.70
2019-04-01T17:52:58.960Z,14.23
2019-04-01T17:55:28.302Z,14.40
2019-04-01T17:57:57.590Z,12.30
2019-04-01T18:00:28.573Z,13.90
2019-04-01T18:02:57.867Z,12.80
2019-04-01T18:05:27.136Z,13.40
2019-04-01T18:07:56.491Z,14.13
2019-04-01T18:10:25.910Z,13.60
2019-04-01T18:12:55.221Z,14.13
2019-04-01T18:15:24.558Z,14.67
2019-04-01T18:17:53.840Z,13.07
2019-04-01T18:20:23.116Z,13.60
2019-04-01T18:22:52.668Z,13.97
2019-04-01T18:25:21.943Z,14.97
2019-04-01T18:27:51.225Z,14.10
2019-04-01T18:30:20.804Z,13.53
2019-04-01T18:32:54.803Z,12.87
2019-04-01T18:35:21.087Z,14.83
2019-04-01T18:37:50.374Z,13.73
2019-04-01T18:40:32.088Z,13.27
2019-04-01T18:42:51.063Z,15.20
2019-04-01T18:45:21.411Z,14.30
2019-04-01T18:47:51.569Z,15.27
2019-04-01T18:50:20.840Z,14.43
2019-04-01T18:52:50.126Z,13.83
2019-04-01T18:55:19.416Z,13.00
2019-04-01T18:57:48.769Z,14.30
2019-04-01T19:00:19.783Z,15.80
2019-04-01T19:02:49.044Z,16.00
2019-04-01T19:05:18.655Z,15.90
2019-04-01T19:07:48.267Z,15.00
2019-04-01T19:10:17.549Z,13.57
2019-04-01T19:12:46.864Z,15.63
2019-04-01T19:15:16.233Z,15.90
2019-04-01T19:17:45.773Z,15.40
2019-04-01T19:20:15.361Z,16.10
2019-04-01T19:22:44.647Z,14.47
2019-04-01T19:25:13.981Z,15.57
2019-04-01T19:27:43.591Z,14.40
2019-04-01T19:30:14.730Z,14.70
2019-04-01T19:32:44.338Z,15.30
2019-04-01T19:35:13.846Z,15.10
2019-04-01T19:37:43.456Z,15.77
2019-04-01T19:40:14.632Z,15.73
2019-04-01T19:42:43.916Z,15.43
2019-04-01T19:45:13.829Z,15.80
2019-04-01T19:47:43.110Z,15.20
2019-04-01T19:50:12.914Z,16.00
2019-04-01T19:52:44.333Z,15.70
2019-04-01T19:55:13.193Z,15.67
2019-04-01T19:57:42.475Z,15.70
2019-04-01T20:00:26.702Z,17.10
2019-04-01T20:02:43.586Z,16.33
2019-04-01T20:05:12.941Z,17.10
2019-04-01T20:07:42.205Z,17.70
2019-04-01T20:10:12.384Z,17.50
2019-04-01T20:12:41.682Z,18.13
2019-04-01T20:15:12.136Z,17.70
2019-04-01T20:17:41.878Z,17.60
2019-04-01T20:20:14.519Z,18.57
2019-04-01T20:22:43.305Z,17.33
2019-04-01T20:25:12.646Z,18.50
2019-04-01T20:27:41.956Z,18.00
2019-04-01T20:30:11.537Z,17.17
2019-04-01T20:32:40.819Z,16.87
2019-04-01T20:35:22.652Z,16.27
2019-04-01T20:37:41.479Z,17.77
2019-04-01T20:40:11.140Z,18.00
2019-04-01T20:42:40.727Z,16.97
2019-04-01T20:45:11.045Z,16.30
2019-04-01T20:47:41.293Z,17.70
2019-04-01T20:50:11.690Z,18.57
2019-04-01T20:52:40.962Z,18.43
2019-04-01T20:55:10.453Z,17.40
2019-04-01T20:57:39.726Z,17.27
2019-04-01T21:00:10.022Z,16.53
2019-04-01T21:02:39.635Z,16.30
2019-04-01T21:05:09.564Z,16.13
2019-04-01T21:07:38.842Z,16.40
2019-04-01T21:10:08.835Z,16.93
2019-04-01T21:12:38.116Z,16.70
2019-04-01T21:15:10.651Z,18.10
2019-04-01T21:17:39.920Z,19.30
2019-04-01T21:20:10.115Z,18.10
2019-04-01T21:22:39.669Z,18.10
2019-04-01T21:25:09.486Z,20.07
2019-04-01T21:27:38.762Z,17.63
2019-04-01T21:30:12.007Z,17.93
2019-04-01T21:32:41.283Z,18.53
2019-04-01T21:35:10.633Z,19.07
2019-04-01T21:37:39.901Z,18.30
2019-04-01T21:40:09.365Z,19.57
2019-04-01T21:42:38.645Z,20.00
2019-04-01T21:45:08.875Z,17.83
2019-04-01T21:47:38.515Z,19.50
2019-04-01T21:50:08.621Z,18.40
2019-04-01T21:52:37.893Z,18.03
2019-04-01T21:55:08.322Z,19.67
2019-04-01T21:57:38.066Z,18.97
2019-04-01T22:00:14.211Z,21.87
2019-04-01T22:02:44.542Z,20.47
2019-04-01T22:05:14.048Z,19.70
2019-04-01T22:07:43.325Z,21.23
2019-04-01T22:10:13.794Z,21.67
2019-04-01T22:12:43.394Z,22.20
2019-04-01T22:15:12.813Z,22.60
2019-04-01T22:17:42.088Z,20.97
2019-04-01T22:20:11.374Z,21.73
2019-04-01T22:22:40.647Z,23.57
2019-04-01T22:25:09.928Z,22.10
2019-04-01T22:27:39.206Z,22.10
2019-04-01T22:30:09.024Z,21.90
2019-04-01T22:32:38.301Z,23.20
2019-04-01T22:35:08.558Z,22.10
2019-04-01T22:37:38.097Z,20.97
2019-04-01T22:40:08.559Z,22.33
2019-04-01T22:42:37.828Z,21.60
2019-04-01T22:45:08.847Z,22.40
2019-04-01T22:47:38.408Z,24.67
2019-04-01T22:50:08.141Z,23.57
2019-04-01T22:52:37.417Z,24.73
2019-04-01T22:55:07.340Z,23.40
2019-04-01T22:57:36.612Z,22.87
2019-04-01T23:00:06.638Z,23.37
2019-04-01T23:02:35.910Z,23.57
2019-04-01T23:05:08.288Z,23.20
2019-04-01T23:07:38.003Z,21.50
2019-04-01T23:10:08.592Z,24.27
2019-04-01T23:12:38.337Z,24.13
2019-04-01T23:15:08.866Z,23.33
2019-04-01T23:17:38.715Z,23.27
2019-04-01T23:20:08.448Z,23.60
2019-04-01T23:22:37.716Z,22.90
2019-04-01T23:25:07.646Z,22.90
2019-04-01T23:27:37.255Z,24.10
2019-04-01T23:30:10.084Z,24.10
2019-04-01T23:32:41.844Z,23.57
2019-04-01T23:35:12.280Z,22.23
2019-04-01T23:37:41.857Z,23.57
2019-04-01T23:40:12.143Z,24.40
2019-04-01T23:42:41.422Z,24.17
2019-04-01T23:45:11.108Z,24.83
2019-04-01T23:47:40.387Z,25.43
2019-04-01T23:50:10.000Z,24.60
2019-04-01T23:52:39.254Z,22.70
2019-04-01T23:55:08.908Z,23.67
2019-04-01T23:57:38.183Z,23.70
